Bretagne — FNBR — position and weather

sailwx.info

Track history (hours):
 
Tides and Currents Weather Stations Pressure Air Temp Water Temp Dewpoint Dewpoint Depression Visibility Wind Speed Wind Dir Waves Ship Positions

Bretagne

Operator: Brittany Ferries

Last reported at 2015-Apr-18 22:33 UTC. Time now 2015-Apr-19 14:10 UTC.
Position N 50°11' W 001°35'.

Length 151 m; beam 27 m.

Type: Ship. MMSI: 227286000.

Date/timePositionNaut miles runAvg speedWind from/ knotsBaromVisibWave heightAir tempDewpointWater temp
2015-Apr-18 22:33N 50°11' W 001°35'1514.4
2015-Apr-18 21:33N 50°23' W 001°22'1313.6
2015-Apr-18 20:33N 50°34' W 001°10'1111.4
2015-Apr-18 19:33N 50°45' W 001°05'4 4.1
2015-Apr-18 18:33N 50°49' W 001°06'0 0.0
2015-Apr-18 17:33N 50°49' W 001°06'9 9.3
2015-Apr-18 16:33N 50°40' W 001°00'1918.0
2015-Apr-18 15:29N 50°25' W 001°19'8 0.5
2015-Apr-17 22:06N 50°18' W 001°27'814.9
2015-Apr-17 21:32N 50°25' W 001°20'1413.9
2015-Apr-17 20:33N 50°36' W 001°08'1111.3
2015-Apr-17 19:34N 50°48' W 001°07'1 1.1
2015-Apr-17 18:33N 50°49' W 001°06'0 0.0
2015-Apr-17 17:33N 50°49' W 001°06'5 4.7
2015-Apr-17 16:34N 50°44' W 001°04'2117.5
2015-Apr-17 15:22N 50°26' W 001°20'1718.0
2015-Apr-17 14:24N 50°12' W 001°36'1 0.1
2015-Apr-16 22:32N 50°11' W 001°35'1615.8
2015-Apr-16 21:33N 50°24' W 001°21'1515.0
2015-Apr-16 20:34N 50°36' W 001°08'1110.8
2015-Apr-16 19:33N 50°47' W 001°06'2 1.7
2015-Apr-16 18:31N 50°49' W 001°06'0 0.0
2015-Apr-16 17:31N 50°49' W 001°06'5 5.1
2015-Apr-16 16:33N 50°44' W 001°04'1414.3
2015-Apr-16 15:33N 50°31' W 001°13'1919.5
2015-Apr-16 14:33N 50°16' W 001°32'1918.3
2015-Apr-16 13:32N 50°00' W 001°49'5516.9
2015-Apr-16 10:15N 49°09' W 002°21'1419.8
2015-Apr-16 09:33N 48°55' W 002°20'20 3.0
2015-Apr-16 03:03N 49°15' W 002°21'511.3
2015-Apr-16 02:34N 49°20' W 002°19'1212.2
2015-Apr-16 01:34N 49°31' W 002°10'1413.7
2015-Apr-16 00:34N 49°44' W 002°03'1414.1
2015-Apr-15 23:34N 49°56' W 001°51'1514.8
2015-Apr-15 22:32N 50°09' W 001°38'1915.4
2015-Apr-15 21:18N 50°24' W 001°21'1115.1
2015-Apr-15 20:33N 50°33' W 001°11'1212.5
2015-Apr-15 19:34N 50°45' W 001°05'3 3.3
2015-Apr-15 18:32N 50°49' W 001°06'0 0.0
2015-Apr-15 17:33N 50°49' W 001°06'0 0.0
2015-Apr-15 16:33N 50°49' W 001°06'0 0.0
2015-Apr-15 15:33N 50°49' W 001°06'0 0.0
2015-Apr-15 14:34N 50°49' W 001°06'0 0.0
2015-Apr-15 13:34N 50°49' W 001°06'0 0.0
2015-Apr-15 12:34N 50°49' W 001°06'0 0.0
2015-Apr-15 11:34N 50°49' W 001°06'0 0.0
2015-Apr-15 10:33N 50°49' W 001°06'0 0.0
2015-Apr-15 09:34N 50°49' W 001°06'0 0.0
2015-Apr-15 08:34N 50°49' W 001°06'0 0.0
2015-Apr-15 07:34N 50°49' W 001°06'0 0.0
2015-Apr-15 06:34N 50°49' W 001°06'1111.3
2015-Apr-15 05:33N 50°37' W 001°07'1716.6
2015-Apr-15 04:34N 50°23' W 001°19'1313.0
2015-Apr-15 03:33N 50°12' W 001°31'1313.1
2015-Apr-15 02:32N 50°02' W 001°44'1212.6
2015-Apr-15 01:34N 49°51' W 001°55'72 7.1
2015-Apr-14 15:30N 48°40' W 002°05'6 1.4
2015-Apr-14 11:22N 48°43' W 002°13'2 2.4
2015-Apr-14 10:22N 48°43' W 002°09'41 5.2
2015-Apr-14 02:30N 49°24' W 002°16'13 9.4
2015-Apr-14 01:09N 49°35' W 002°09'2113.0
2015-Apr-13 23:33N 49°54' W 001°54'1616.3
2015-Apr-13 22:33N 50°08' W 001°40'1717.0
2015-Apr-13 21:33N 50°23' W 001°29'1717.0
2015-Apr-13 20:33N 50°35' W 001°10'1312.5
2015-Apr-13 19:33N 50°47' W 001°06'2 1.8
2015-Apr-13 18:33N 50°49' W 001°06'0 0.0
2015-Apr-13 17:33N 50°49' W 001°06'3 2.9
2015-Apr-13 16:33N 50°46' W 001°05'1515.0
2015-Apr-13 15:33N 50°32' W 001°13'1717.2
2015-Apr-13 14:32N 50°16' W 001°26'1717.5
2015-Apr-13 13:33N 50°03' W 001°43'1817.9
2015-Apr-13 12:33N 49°48' W 001°59'2120.5
2015-Apr-13 11:33N 49°30' W 002°12'2518.8
2015-Apr-13 10:15N 49°06' W 002°22'41 4.2
2015-Apr-13 00:30N 49°45' W 002°02'1613.0
2015-Apr-12 23:15N 49°58' W 001°47'1015.0
2015-Apr-12 22:33N 50°08' W 001°43'1515.5
2015-Apr-12 21:33N 50°20' W 001°27'1615.8
2015-Apr-12 20:34N 50°32' W 001°11'1413.9
2015-Apr-12 19:34N 50°45' W 001°05'3 3.3
2015-Apr-12 18:32N 50°49' W 001°06'0 0.0
2015-Apr-12 17:32N 50°49' W 001°06'3 2.8
2015-Apr-12 16:33N 50°46' W 001°05'1514.8
2015-Apr-12 15:33N 50°32' W 001°12'15 0.8
2015-Apr-11 21:33N 50°20' W 001°26'1515.3
2015-Apr-11 20:33N 50°32' W 001°12'1313.4
2015-Apr-11 19:34N 50°45' W 001°05'4 3.8
2015-Apr-11 18:31N 50°49' W 001°06'0 0.0
2015-Apr-11 17:31N 50°49' W 001°06'4 3.7
2015-Apr-11 16:33N 50°45' W 001°05'1414.0
2015-Apr-11 15:32N 50°32' W 001°13'17 1.0
2015-Apr-10 22:13N 50°17' W 001°28'914.2
2015-Apr-10 21:33N 50°25' W 001°20'1616.0
2015-Apr-10 20:34N 50°37' W 001°03'10 9.7
2015-Apr-10 19:33N 50°47' W 001°06'2 1.9
2015-Apr-10 18:32N 50°49' W 001°06'0 0.0
2015-Apr-10 17:33N 50°49' W 001°06'3 2.7
2015-Apr-10 16:33N 50°46' W 001°05'1413.5
2015-Apr-10 15:33N 50°33' W 001°12'2613.1
2015-Apr-10 13:33N 50°11' W 001°34'6419.0
2015-Apr-10 10:13N 49°09' W 001°54'3018.0
2015-Apr-10 08:31N 48°39' W 002°02'7 2.4
2015-Apr-10 05:31N 48°44' W 002°08'3013.8
2015-Apr-10 03:21N 49°13' W 002°22'1315.8
2015-Apr-10 02:32N 49°25' W 002°17'1715.3
2015-Apr-10 01:26N 49°40' W 002°05'1315.0
2015-Apr-10 00:33N 49°52' W 001°55'1413.8
2015-Apr-09 23:33N 50°03' W 001°42'1312.7
2015-Apr-09 22:33N 50°12' W 001°29'1313.3
2015-Apr-09 21:33N 50°23' W 001°17'1413.8
2015-Apr-09 20:33N 50°35' W 001°05'1111.3
2015-Apr-09 19:33N 50°46' W 001°05'3 2.8
2015-Apr-09 18:31N 50°49' W 001°06'0 0.0
2015-Apr-09 17:31N 50°49' W 001°06'4 4.2
2015-Apr-09 16:34N 50°45' W 001°05'1313.4
2015-Apr-09 15:34N 50°32' W 001°12'1413.7
2015-Apr-09 14:33N 50°22' W 001°26'1616.3
2015-Apr-09 13:33N 50°07' W 001°38'2020.1
2015-Apr-09 12:34N 49°50' W 001°55'2320.4
2015-Apr-09 11:25N 49°28' W 002°05'1918.8
2015-Apr-09 10:25N 49°10' W 001°55'1617.8
2015-Apr-09 09:32N 48°55' W 001°59'25 4.0
2015-Apr-09 03:15N 49°15' W 002°21'1916.3
2015-Apr-09 02:03N 49°33' W 002°11'916.9
2015-Apr-09 01:32N 49°41' W 002°06'1615.9
2015-Apr-09 00:33N 49°53' W 001°51'1514.4
2015-Apr-08 23:31N 50°04' W 001°34'  
Track history (hours):
 
Tides and Currents Weather Stations Pressure Air Temp Water Temp Dewpoint Dewpoint Depression Visibility Wind Speed Wind Dir Waves Ship Positions

Bretagne

Operator: Brittany Ferries

Last reported at 2015-Apr-18 22:33 UTC. Time now 2015-Apr-19 14:10 UTC.
Position N 50°11' W 001°35'.

Length 151 m; beam 27 m.

Type: Ship. MMSI: 227286000.

Date/timePositionNaut miles runAvg speedWind from/ knotsBaromVisibWave heightAir tempDewpointWater temp
2015-Apr-18 22:33N 50°11' W 001°35'1514.4
2015-Apr-18 21:33N 50°23' W 001°22'1313.6
2015-Apr-18 20:33N 50°34' W 001°10'1111.4
2015-Apr-18 19:33N 50°45' W 001°05'4 4.1
2015-Apr-18 18:33N 50°49' W 001°06'0 0.0
2015-Apr-18 17:33N 50°49' W 001°06'9 9.3
2015-Apr-18 16:33N 50°40' W 001°00'1918.0
2015-Apr-18 15:29N 50°25' W 001°19'8 0.5
2015-Apr-17 22:06N 50°18' W 001°27'814.9
2015-Apr-17 21:32N 50°25' W 001°20'1413.9
2015-Apr-17 20:33N 50°36' W 001°08'1111.3
2015-Apr-17 19:34N 50°48' W 001°07'1 1.1
2015-Apr-17 18:33N 50°49' W 001°06'0 0.0
2015-Apr-17 17:33N 50°49' W 001°06'5 4.7
2015-Apr-17 16:34N 50°44' W 001°04'2117.5
2015-Apr-17 15:22N 50°26' W 001°20'1718.0
2015-Apr-17 14:24N 50°12' W 001°36'1 0.1
2015-Apr-16 22:32N 50°11' W 001°35'1615.8
2015-Apr-16 21:33N 50°24' W 001°21'1515.0
2015-Apr-16 20:34N 50°36' W 001°08'1110.8
2015-Apr-16 19:33N 50°47' W 001°06'2 1.7
2015-Apr-16 18:31N 50°49' W 001°06'0 0.0
2015-Apr-16 17:31N 50°49' W 001°06'5 5.1
2015-Apr-16 16:33N 50°44' W 001°04'1414.3
2015-Apr-16 15:33N 50°31' W 001°13'1919.5
2015-Apr-16 14:33N 50°16' W 001°32'1918.3
2015-Apr-16 13:32N 50°00' W 001°49'5516.9
2015-Apr-16 10:15N 49°09' W 002°21'1419.8
2015-Apr-16 09:33N 48°55' W 002°20'20 3.0
2015-Apr-16 03:03N 49°15' W 002°21'511.3
2015-Apr-16 02:34N 49°20' W 002°19'1212.2
2015-Apr-16 01:34N 49°31' W 002°10'1413.7
2015-Apr-16 00:34N 49°44' W 002°03'1414.1
2015-Apr-15 23:34N 49°56' W 001°51'1514.8
2015-Apr-15 22:32N 50°09' W 001°38'1915.4
2015-Apr-15 21:18N 50°24' W 001°21'1115.1
2015-Apr-15 20:33N 50°33' W 001°11'1212.5
2015-Apr-15 19:34N 50°45' W 001°05'3 3.3
2015-Apr-15 18:32N 50°49' W 001°06'0 0.0
2015-Apr-15 17:33N 50°49' W 001°06'0 0.0
2015-Apr-15 16:33N 50°49' W 001°06'0 0.0
2015-Apr-15 15:33N 50°49' W 001°06'0 0.0
2015-Apr-15 14:34N 50°49' W 001°06'0 0.0
2015-Apr-15 13:34N 50°49' W 001°06'0 0.0
2015-Apr-15 12:34N 50°49' W 001°06'0 0.0
2015-Apr-15 11:34N 50°49' W 001°06'0 0.0
2015-Apr-15 10:33N 50°49' W 001°06'0 0.0
2015-Apr-15 09:34N 50°49' W 001°06'0 0.0
2015-Apr-15 08:34N 50°49' W 001°06'0 0.0
2015-Apr-15 07:34N 50°49' W 001°06'0 0.0
2015-Apr-15 06:34N 50°49' W 001°06'1111.3
2015-Apr-15 05:33N 50°37' W 001°07'1716.6
2015-Apr-15 04:34N 50°23' W 001°19'1313.0
2015-Apr-15 03:33N 50°12' W 001°31'1313.1
2015-Apr-15 02:32N 50°02' W 001°44'1212.6
2015-Apr-15 01:34N 49°51' W 001°55'72 7.1
2015-Apr-14 15:30N 48°40' W 002°05'6 1.4
2015-Apr-14 11:22N 48°43' W 002°13'2 2.4
2015-Apr-14 10:22N 48°43' W 002°09'41 5.2
2015-Apr-14 02:30N 49°24' W 002°16'13 9.4
2015-Apr-14 01:09N 49°35' W 002°09'2113.0
2015-Apr-13 23:33N 49°54' W 001°54'1616.3
2015-Apr-13 22:33N 50°08' W 001°40'1717.0
2015-Apr-13 21:33N 50°23' W 001°29'1717.0
2015-Apr-13 20:33N 50°35' W 001°10'1312.5
2015-Apr-13 19:33N 50°47' W 001°06'2 1.8
2015-Apr-13 18:33N 50°49' W 001°06'0 0.0
2015-Apr-13 17:33N 50°49' W 001°06'3 2.9
2015-Apr-13 16:33N 50°46' W 001°05'1515.0
2015-Apr-13 15:33N 50°32' W 001°13'1717.2
2015-Apr-13 14:32N 50°16' W 001°26'1717.5
2015-Apr-13 13:33N 50°03' W 001°43'1817.9
2015-Apr-13 12:33N 49°48' W 001°59'2120.5
2015-Apr-13 11:33N 49°30' W 002°12'2518.8
2015-Apr-13 10:15N 49°06' W 002°22'41 4.2
2015-Apr-13 00:30N 49°45' W 002°02'1613.0
2015-Apr-12 23:15N 49°58' W 001°47'1015.0
2015-Apr-12 22:33N 50°08' W 001°43'1515.5
2015-Apr-12 21:33N 50°20' W 001°27'1615.8
2015-Apr-12 20:34N 50°32' W 001°11'1413.9
2015-Apr-12 19:34N 50°45' W 001°05'3 3.3
2015-Apr-12 18:32N 50°49' W 001°06'0 0.0
2015-Apr-12 17:32N 50°49' W 001°06'3 2.8
2015-Apr-12 16:33N 50°46' W 001°05'1514.8
2015-Apr-12 15:33N 50°32' W 001°12'15 0.8
2015-Apr-11 21:33N 50°20' W 001°26'1515.3
2015-Apr-11 20:33N 50°32' W 001°12'1313.4
2015-Apr-11 19:34N 50°45' W 001°05'4 3.8
2015-Apr-11 18:31N 50°49' W 001°06'0 0.0
2015-Apr-11 17:31N 50°49' W 001°06'4 3.7
2015-Apr-11 16:33N 50°45' W 001°05'1414.0
2015-Apr-11 15:32N 50°32' W 001°13'17 1.0
2015-Apr-10 22:13N 50°17' W 001°28'914.2
2015-Apr-10 21:33N 50°25' W 001°20'1616.0
2015-Apr-10 20:34N 50°37' W 001°03'10 9.7
2015-Apr-10 19:33N 50°47' W 001°06'2 1.9
2015-Apr-10 18:32N 50°49' W 001°06'0 0.0
2015-Apr-10 17:33N 50°49' W 001°06'3 2.7
2015-Apr-10 16:33N 50°46' W 001°05'1413.5
2015-Apr-10 15:33N 50°33' W 001°12'2613.1
2015-Apr-10 13:33N 50°11' W 001°34'6419.0
2015-Apr-10 10:13N 49°09' W 001°54'3018.0
2015-Apr-10 08:31N 48°39' W 002°02'7 2.4
2015-Apr-10 05:31N 48°44' W 002°08'3013.8
2015-Apr-10 03:21N 49°13' W 002°22'1315.8
2015-Apr-10 02:32N 49°25' W 002°17'1715.3
2015-Apr-10 01:26N 49°40' W 002°05'1315.0
2015-Apr-10 00:33N 49°52' W 001°55'1413.8
2015-Apr-09 23:33N 50°03' W 001°42'1312.7
2015-Apr-09 22:33N 50°12' W 001°29'1313.3
2015-Apr-09 21:33N 50°23' W 001°17'1413.8
2015-Apr-09 20:33N 50°35' W 001°05'1111.3
2015-Apr-09 19:33N 50°46' W 001°05'3 2.8
2015-Apr-09 18:31N 50°49' W 001°06'0 0.0
2015-Apr-09 17:31N 50°49' W 001°06'4 4.2
2015-Apr-09 16:34N 50°45' W 001°05'1313.4
2015-Apr-09 15:34N 50°32' W 001°12'1413.7
2015-Apr-09 14:33N 50°22' W 001°26'1616.3
2015-Apr-09 13:33N 50°07' W 001°38'2020.1
2015-Apr-09 12:34N 49°50' W 001°55'2320.4
2015-Apr-09 11:25N 49°28' W 002°05'1918.8
2015-Apr-09 10:25N 49°10' W 001°55'1617.8
2015-Apr-09 09:32N 48°55' W 001°59'25 4.0
2015-Apr-09 03:15N 49°15' W 002°21'1916.3
2015-Apr-09 02:03N 49°33' W 002°11'916.9
2015-Apr-09 01:32N 49°41' W 002°06'1615.9
2015-Apr-09 00:33N 49°53' W 001°51'1514.4
2015-Apr-08 23:31N 50°04' W 001°34'  

Dump ship's entire track history